Tenneville, Belgium
Current Conditions -  °F | °C
As of 10:20 PM on Tuesday 21 Oct 2014 (Local Time) from EBLG Reporting Station
Broken Clouds Broken Clouds  
Wind Chill: 39°   Ceiling: 4800
Heat Index: 46°   Visibility: 6mi
Dew Point: 41°   Wind: 20mph
Humidity: 81%   Direction: 260°W
Pressure: 29.83"   Gusts: NA
Location:  50.1°N, 5.53°E
Report Text: EBLG 212020Z 26017KT 9999 FEW030 BKN048 08/05 Q1010 TEMPO 4000 SHRA SCT010 BKN015CB
Loading
Personal Weather Stations






























Interactive Weather Map
Tropical Storm Tracking
New forecast layout! Learn more

10-Day Weather Forecast

Advertisements
Track Severe Weather on mobile